createdAt,value
2022-09-15T00:01:10.534Z,20.25
2022-09-15T00:03:38.914Z,19.99
2022-09-15T00:06:07.444Z,19.69
2022-09-15T00:08:34.648Z,19.85
2022-09-15T00:11:15.212Z,20.24
2022-09-15T00:13:42.669Z,20.23
2022-09-15T00:16:14.990Z,20.20
2022-09-15T00:18:43.989Z,20.07
2022-09-15T00:21:18.147Z,19.93
2022-09-15T00:23:45.522Z,19.69
2022-09-15T00:26:15.207Z,19.44
2022-09-15T00:28:42.735Z,19.53
2022-09-15T00:31:13.844Z,19.83
2022-09-15T00:33:42.151Z,19.92
2022-09-15T00:36:12.181Z,19.83
2022-09-15T00:38:39.844Z,19.69
2022-09-15T00:41:10.059Z,19.55
2022-09-15T00:44:07.249Z,19.48
2022-09-15T00:46:41.132Z,19.24
2022-09-15T00:49:11.169Z,19.48
2022-09-15T00:52:03.202Z,19.87
2022-09-15T00:54:33.139Z,19.97
2022-09-15T00:57:10.304Z,19.82
2022-09-15T00:59:41.679Z,19.67
2022-09-15T01:02:33.902Z,19.49
2022-09-15T01:05:05.030Z,19.24
2022-09-15T01:07:45.503Z,18.97
2022-09-15T01:10:22.707Z,19.13
2022-09-15T01:12:49.911Z,19.49
2022-09-15T01:15:17.287Z,19.62
2022-09-15T01:21:02.680Z,19.47
2022-09-15T01:23:54.613Z,19.31
2022-09-15T01:26:21.497Z,19.04
2022-09-15T01:29:22.672Z,19.22
2022-09-15T01:32:38.288Z,19.60
2022-09-15T01:35:21.108Z,19.68
2022-09-15T01:38:27.277Z,19.58
2022-09-15T01:41:09.484Z,19.47
2022-09-15T01:43:42.879Z,19.21
2022-09-15T01:46:12.339Z,18.92
2022-09-15T01:48:40.347Z,19.07
2022-09-15T01:51:08.828Z,19.42
2022-09-15T01:53:36.388Z,19.60
2022-09-15T01:56:07.945Z,19.57
2022-09-15T01:58:37.219Z,19.47
2022-09-15T02:01:12.509Z,19.32
2022-09-15T02:03:55.627Z,19.12
2022-09-15T02:06:26.748Z,19.29
2022-09-15T02:09:02.808Z,19.63
2022-09-15T02:11:30.575Z,19.75
2022-09-15T02:14:23.148Z,19.70
2022-09-15T02:16:54.328Z,19.55
2022-09-15T02:19:33.497Z,19.35
2022-09-15T02:22:04.743Z,19.13
2022-09-15T02:24:50.478Z,19.32
2022-09-15T02:27:23.215Z,19.71
2022-09-15T02:29:54.110Z,19.85
2022-09-15T02:32:23.855Z,19.83
2022-09-15T02:34:54.656Z,19.75
2022-09-15T02:37:24.496Z,19.59
2022-09-15T02:39:58.014Z,19.38
2022-09-15T02:42:26.996Z,19.54
2022-09-15T02:44:54.555Z,19.86
2022-09-15T02:47:21.601Z,20.03
2022-09-15T02:49:48.650Z,20.04
2022-09-15T02:52:16.092Z,19.93
2022-09-15T02:54:43.256Z,19.81
2022-09-15T02:57:10.508Z,19.57
2022-09-15T02:59:56.295Z,19.68
2022-09-15T03:02:24.917Z,20.05
2022-09-15T03:04:52.030Z,20.15
2022-09-15T03:07:19.997Z,20.12
2022-09-15T03:09:47.454Z,20.00
2022-09-15T03:12:14.808Z,19.85
2022-09-15T03:14:41.856Z,19.63
2022-09-15T03:17:08.906Z,19.75
2022-09-15T03:19:36.053Z,20.10
2022-09-15T03:22:03.407Z,20.27
2022-09-15T03:24:30.661Z,20.29
2022-09-15T03:26:57.725Z,20.21
2022-09-15T03:29:24.757Z,20.10
2022-09-15T03:31:52.292Z,19.86
2022-09-15T03:34:19.467Z,19.94
2022-09-15T03:36:46.618Z,20.24
2022-09-15T03:39:13.810Z,20.46
2022-09-15T03:41:40.816Z,20.51
2022-09-15T03:44:07.962Z,20.40
2022-09-15T03:46:35.624Z,20.26
2022-09-15T03:49:02.774Z,20.11
2022-09-15T03:51:29.784Z,20.29
2022-09-15T03:53:56.875Z,20.61
2022-09-15T03:56:27.532Z,20.78
2022-09-15T03:58:54.766Z,20.77
2022-09-15T04:01:23.281Z,20.72
2022-09-15T04:03:51.671Z,20.66
2022-09-15T04:06:23.373Z,20.48
2022-09-15T04:08:51.459Z,20.25
2022-09-15T04:11:21.017Z,20.45
2022-09-15T04:13:48.404Z,20.88
2022-09-15T04:16:18.704Z,21.16
2022-09-15T04:18:46.711Z,21.21
2022-09-15T04:21:16.426Z,21.08
2022-09-15T04:23:45.191Z,20.94
2022-09-15T04:26:30.133Z,20.82
2022-09-15T04:29:03.029Z,20.64
2022-09-15T04:31:31.905Z,20.88
2022-09-15T04:41:02.411Z,21.30
2022-09-15T04:43:30.386Z,21.28
2022-09-15T04:45:57.735Z,21.18
2022-09-15T04:48:25.706Z,21.00
2022-09-15T04:50:53.060Z,21.12
2022-09-15T04:53:20.619Z,21.47
2022-09-15T04:55:47.564Z,21.71
2022-09-15T04:58:14.820Z,21.76
2022-09-15T05:00:42.980Z,21.72
2022-09-15T05:03:11.266Z,21.55
2022-09-15T05:05:38.723Z,21.43
2022-09-15T05:08:07.618Z,21.29
2022-09-15T05:10:35.072Z,21.45
2022-09-15T05:13:01.920Z,21.82
2022-09-15T05:15:29.472Z,22.01
2022-09-15T05:17:57.647Z,22.07
2022-09-15T05:20:25.413Z,22.05
2022-09-15T05:22:52.241Z,21.96
2022-09-15T05:25:19.199Z,21.88
2022-09-15T05:27:46.556Z,21.78
2022-09-15T05:30:36.677Z,22.01
2022-09-15T05:33:01.026Z,22.44
2022-09-15T05:35:28.688Z,22.61
2022-09-15T05:37:56.274Z,22.57
2022-09-15T05:40:23.588Z,22.40
2022-09-15T05:42:50.854Z,22.23
2022-09-15T05:45:17.663Z,22.09
2022-09-15T05:47:44.539Z,21.91
2022-09-15T05:50:11.894Z,22.04
2022-09-15T05:52:38.744Z,22.42
2022-09-15T05:55:05.887Z,22.61
2022-09-15T05:57:33.142Z,22.60
2022-09-15T06:00:00.010Z,22.46
2022-09-15T06:02:26.848Z,22.32
2022-09-15T06:04:53.874Z,22.19
2022-09-15T06:07:20.819Z,22.08
2022-09-15T06:09:48.275Z,21.89
2022-09-15T06:12:17.574Z,22.07
2022-09-15T06:14:45.451Z,22.48
2022-09-15T06:17:12.799Z,22.69
2022-09-15T06:19:39.956Z,22.72
2022-09-15T06:22:06.891Z,22.70
2022-09-15T06:24:33.938Z,22.63
2022-09-15T06:27:00.887Z,22.49
2022-09-15T06:29:28.546Z,22.34
2022-09-15T06:31:56.808Z,22.15
2022-09-15T06:37:09.165Z,22.80
2022-09-15T06:39:36.095Z,22.99
2022-09-15T06:42:05.830Z,23.18
2022-09-15T06:44:35.204Z,23.15
2022-09-15T06:47:03.684Z,23.07
2022-09-15T06:49:31.346Z,22.95
2022-09-15T06:52:01.465Z,22.69
2022-09-15T06:54:28.616Z,22.43
2022-09-15T06:56:55.664Z,22.72
2022-09-15T06:59:24.246Z,23.16
2022-09-15T07:01:54.853Z,23.39
2022-09-15T07:04:22.334Z,23.37
2022-09-15T07:06:50.023Z,23.26
2022-09-15T07:09:17.145Z,23.16
2022-09-15T07:11:44.603Z,23.08
2022-09-15T07:14:12.161Z,22.98
2022-09-15T07:16:39.896Z,22.87
2022-09-15T07:19:07.182Z,23.12
2022-09-15T07:21:35.149Z,23.57
2022-09-15T07:24:06.411Z,23.81
2022-09-15T07:26:34.507Z,23.79
2022-09-15T07:29:05.407Z,23.75
2022-09-15T07:31:34.748Z,23.72
2022-09-15T07:34:02.776Z,23.63
2022-09-15T07:36:30.744Z,23.56
2022-09-15T07:38:58.200Z,23.45
2022-09-15T07:41:29.959Z,23.71
2022-09-15T07:43:59.339Z,24.23
2022-09-15T07:46:31.532Z,24.67
2022-09-15T07:49:00.115Z,24.79
2022-09-15T07:51:27.467Z,24.61
2022-09-15T07:53:54.824Z,24.54
2022-09-15T07:56:24.022Z,24.36
2022-09-15T07:58:51.348Z,24.19
2022-09-15T08:01:20.022Z,24.06
2022-09-15T08:03:49.465Z,23.92
2022-09-15T08:06:20.982Z,24.14
2022-09-15T08:08:48.578Z,24.61
2022-09-15T08:11:19.721Z,24.83
2022-09-15T08:13:49.123Z,24.87
2022-09-15T08:16:22.794Z,24.81
2022-09-15T08:18:53.063Z,24.71
2022-09-15T08:21:21.734Z,24.63
2022-09-15T08:23:55.280Z,24.57
2022-09-15T08:26:23.258Z,24.51
2022-09-15T08:28:50.252Z,24.45
2022-09-15T08:31:17.868Z,24.74
2022-09-15T08:33:51.204Z,25.27
2022-09-15T08:36:18.154Z,25.59
2022-09-15T08:38:46.223Z,25.69
2022-09-15T08:41:13.677Z,25.73
2022-09-15T08:44:10.525Z,25.70
2022-09-15T08:46:49.891Z,25.82
2022-09-15T08:49:47.501Z,25.86
2022-09-15T08:52:32.598Z,25.86
2022-09-15T08:55:05.581Z,25.89
2022-09-15T08:57:32.833Z,25.87
2022-09-15T08:59:59.781Z,25.70
2022-09-15T09:02:34.827Z,25.93
2022-09-15T09:05:16.093Z,26.37
2022-09-15T09:07:48.943Z,26.67
2022-09-15T09:10:30.696Z,26.76
2022-09-15T09:13:35.262Z,26.77
2022-09-15T09:16:25.282Z,26.80
2022-09-15T09:19:19.676Z,26.84
2022-09-15T09:21:53.142Z,26.86
2022-09-15T09:24:34.886Z,26.87
2022-09-15T09:27:02.124Z,26.84
2022-09-15T09:29:39.093Z,26.83
2022-09-15T09:32:19.808Z,26.76
2022-09-15T09:34:54.116Z,26.65
2022-09-15T09:37:21.537Z,26.61
2022-09-15T09:39:48.733Z,26.65
2022-09-15T09:42:18.190Z,26.46
2022-09-15T09:44:46.774Z,26.35
2022-09-15T09:47:14.939Z,26.71
2022-09-15T09:49:49.054Z,27.26
2022-09-15T09:52:33.698Z,27.62
2022-09-15T09:55:15.941Z,27.80
2022-09-15T09:57:43.279Z,27.95
2022-09-15T10:00:34.082Z,27.95
2022-09-15T10:03:15.994Z,27.82
2022-09-15T10:05:44.095Z,27.78
2022-09-15T10:08:19.495Z,27.75
2022-09-15T10:10:55.247Z,27.69
2022-09-15T10:13:22.260Z,27.67
2022-09-15T10:15:56.106Z,27.70
2022-09-15T10:18:37.362Z,27.67
2022-09-15T10:21:07.346Z,27.52
2022-09-15T10:23:34.551Z,27.40
2022-09-15T10:26:33.669Z,27.28
2022-09-15T10:29:12.264Z,27.34
2022-09-15T10:31:39.449Z,27.42
2022-09-15T10:34:25.992Z,27.43
2022-09-15T10:37:24.511Z,27.55
2022-09-15T10:39:54.387Z,27.58
2022-09-15T10:42:42.520Z,27.50
2022-09-15T10:45:18.168Z,27.53
2022-09-15T10:48:02.653Z,27.65
2022-09-15T10:50:44.562Z,27.76
2022-09-15T10:53:45.683Z,27.85
2022-09-15T10:56:24.718Z,27.98
2022-09-15T10:58:51.531Z,27.99
2022-09-15T11:01:27.876Z,28.07
2022-09-15T11:04:22.860Z,28.08
2022-09-15T11:06:49.895Z,27.96
2022-09-15T11:09:42.384Z,27.81
2022-09-15T11:12:40.817Z,27.65
2022-09-15T11:15:19.746Z,27.51
2022-09-15T11:17:59.189Z,27.43
2022-09-15T11:20:43.294Z,27.46
2022-09-15T11:23:14.925Z,27.53
2022-09-15T11:25:43.895Z,27.56
2022-09-15T11:28:21.250Z,27.45
2022-09-15T11:31:16.406Z,27.36
2022-09-15T11:33:54.672Z,27.35
2022-09-15T11:37:00.497Z,27.32
2022-09-15T11:39:34.656Z,27.38
2022-09-15T11:42:05.696Z,27.44
2022-09-15T11:44:35.099Z,27.50
2022-09-15T11:47:29.972Z,27.51
2022-09-15T11:50:11.487Z,27.48
2022-09-15T11:52:42.629Z,27.55
2022-09-15T11:55:23.400Z,27.53
2022-09-15T11:58:09.287Z,27.48
2022-09-15T12:00:48.321Z,27.57
2022-09-15T12:03:35.638Z,27.61
2022-09-15T12:06:27.775Z,27.61
2022-09-15T12:09:00.883Z,27.66
2022-09-15T12:11:34.892Z,27.75
2022-09-15T12:14:04.789Z,27.73
2022-09-15T12:16:34.501Z,27.67
2022-09-15T12:19:36.038Z,27.67
2022-09-15T12:22:28.560Z,27.71
2022-09-15T12:25:15.154Z,27.76
2022-09-15T12:27:42.151Z,27.65
2022-09-15T12:30:39.919Z,27.52
2022-09-15T12:33:41.732Z,27.43
2022-09-15T12:36:32.623Z,27.41
2022-09-15T12:39:02.342Z,27.43
2022-09-15T12:41:30.064Z,27.35
2022-09-15T12:44:04.504Z,27.16
2022-09-15T12:46:32.605Z,26.98
2022-09-15T12:49:02.775Z,26.86
2022-09-15T12:51:30.309Z,26.83
2022-09-15T12:54:06.901Z,26.70
2022-09-15T12:56:34.797Z,26.61
2022-09-15T12:59:14.518Z,26.38
2022-09-15T13:01:49.154Z,26.29
2022-09-15T13:04:45.111Z,26.18
2022-09-15T13:07:15.013Z,25.98
2022-09-15T13:10:06.794Z,25.80
2022-09-15T13:12:38.207Z,25.68
2022-09-15T13:15:14.140Z,25.50
2022-09-15T13:17:45.161Z,25.45
2022-09-15T13:20:22.984Z,25.31
2022-09-15T13:22:55.809Z,25.15
2022-09-15T13:25:28.568Z,25.02
2022-09-15T13:28:00.691Z,24.82
2022-09-15T13:30:55.630Z,25.03
2022-09-15T13:33:22.447Z,25.47
2022-09-15T13:35:51.098Z,25.70
2022-09-15T13:38:39.226Z,25.66
2022-09-15T13:41:14.831Z,25.52
2022-09-15T13:44:06.967Z,25.38
2022-09-15T13:46:59.694Z,25.19
2022-09-15T13:50:04.833Z,24.95
2022-09-15T13:52:49.800Z,24.73
2022-09-15T13:55:22.678Z,24.46
2022-09-15T14:01:01.659Z,25.14
2022-09-15T14:03:47.665Z,25.23
2022-09-15T14:06:18.964Z,25.18
2022-09-15T14:08:51.689Z,25.01
2022-09-15T14:11:27.914Z,24.82
2022-09-15T14:13:57.112Z,24.68
2022-09-15T14:16:27.266Z,24.44
2022-09-15T14:18:57.334Z,24.61
2022-09-15T14:21:27.472Z,25.03
2022-09-15T14:23:57.712Z,25.21
2022-09-15T14:26:28.664Z,25.12
2022-09-15T14:29:01.936Z,24.89
2022-09-15T14:31:38.449Z,24.68
2022-09-15T14:34:14.800Z,24.46
2022-09-15T14:36:42.427Z,24.19
2022-09-15T14:39:23.033Z,24.32
2022-09-15T14:41:50.492Z,24.65
2022-09-15T14:47:27.938Z,24.71
2022-09-15T14:50:19.286Z,24.49
2022-09-15T14:53:02.811Z,24.30
2022-09-15T14:55:58.727Z,24.16
2022-09-15T14:58:33.538Z,23.91
2022-09-15T15:01:04.976Z,24.19
2022-09-15T15:03:31.941Z,24.62
2022-09-15T15:06:25.359Z,24.77
2022-09-15T15:09:01.203Z,24.66
2022-09-15T15:11:31.235Z,24.45
2022-09-15T15:13:58.900Z,24.18
2022-09-15T15:16:30.297Z,23.90
2022-09-15T15:18:57.812Z,23.60
2022-09-15T15:21:44.752Z,23.77
2022-09-15T15:24:14.663Z,24.15
2022-09-15T15:26:44.706Z,24.21
2022-09-15T15:29:39.784Z,24.10
2022-09-15T15:32:12.899Z,23.85
2022-09-15T15:34:46.711Z,23.61
2022-09-15T15:37:33.336Z,23.37
2022-09-15T15:40:04.655Z,23.59
2022-09-15T15:42:31.913Z,23.87
2022-09-15T15:45:02.336Z,23.97
2022-09-15T15:47:36.145Z,23.87
2022-09-15T15:50:15.269Z,23.69
2022-09-15T15:52:43.445Z,23.51
2022-09-15T15:55:16.453Z,23.23
2022-09-15T15:57:44.055Z,23.38
2022-09-15T16:00:22.068Z,23.62
2022-09-15T16:02:51.386Z,23.72
2022-09-15T16:05:26.045Z,23.63
2022-09-15T16:07:55.655Z,23.45
2022-09-15T16:10:29.469Z,23.25
2022-09-15T16:12:57.787Z,22.92
2022-09-15T16:15:24.874Z,23.11
2022-09-15T16:17:52.252Z,23.44
2022-09-15T16:20:19.471Z,23.50
2022-09-15T16:22:46.322Z,23.46
2022-09-15T16:25:22.658Z,23.33
2022-09-15T16:27:49.457Z,23.13
2022-09-15T16:30:16.487Z,22.88
2022-09-15T16:32:43.511Z,23.01
2022-09-15T16:35:29.186Z,23.29
2022-09-15T16:37:56.965Z,23.37
2022-09-15T16:40:24.474Z,23.28
2022-09-15T16:42:51.763Z,23.13
2022-09-15T16:45:38.191Z,22.94
2022-09-15T16:48:08.889Z,22.61
2022-09-15T16:50:37.793Z,22.89
2022-09-15T16:53:14.195Z,23.24
2022-09-15T16:55:47.252Z,23.28
2022-09-15T16:58:16.812Z,23.19
2022-09-15T17:00:47.339Z,23.03
2022-09-15T17:03:17.062Z,22.87
2022-09-15T17:05:48.749Z,22.58
2022-09-15T17:08:17.958Z,22.77
2022-09-15T17:10:46.940Z,23.07
2022-09-15T17:13:20.158Z,23.12
2022-09-15T17:15:48.228Z,23.05
2022-09-15T17:18:15.876Z,22.92
2022-09-15T17:20:44.820Z,22.77
2022-09-15T17:23:23.608Z,22.54
2022-09-15T17:25:52.799Z,22.66
2022-09-15T17:28:22.897Z,22.98
2022-09-15T17:30:52.278Z,23.12
2022-09-15T17:33:20.133Z,23.06
2022-09-15T17:35:47.795Z,22.93
2022-09-15T17:38:15.818Z,22.71
2022-09-15T17:40:43.202Z,22.42
2022-09-15T17:43:15.567Z,22.64
2022-09-15T17:45:43.431Z,22.93
2022-09-15T17:48:10.778Z,22.98
2022-09-15T17:50:39.459Z,22.85
2022-09-15T17:53:15.761Z,22.71
2022-09-15T17:55:43.196Z,22.57
2022-09-15T17:58:11.095Z,22.38
2022-09-15T18:00:41.840Z,22.52
2022-09-15T18:03:20.515Z,22.85
2022-09-15T18:05:47.961Z,23.01
2022-09-15T18:08:16.429Z,22.97
2022-09-15T18:10:44.125Z,22.83
2022-09-15T18:13:17.807Z,22.64
2022-09-15T18:15:45.452Z,22.38
2022-09-15T18:18:15.950Z,22.60
2022-09-15T18:20:43.419Z,22.93
2022-09-15T18:23:13.862Z,23.08
2022-09-15T18:25:41.714Z,22.96
2022-09-15T18:28:09.440Z,22.80
2022-09-15T18:30:41.874Z,22.61
2022-09-15T18:33:22.002Z,22.41
2022-09-15T18:35:53.574Z,22.60
2022-09-15T18:38:21.363Z,22.96
2022-09-15T18:40:54.695Z,23.09
2022-09-15T18:43:24.605Z,23.06
2022-09-15T18:45:54.445Z,22.90
2022-09-15T18:48:21.364Z,22.79
2022-09-15T18:50:48.178Z,22.61
2022-09-15T18:53:15.424Z,22.75
2022-09-15T18:55:43.071Z,23.13
2022-09-15T18:58:10.821Z,23.28
2022-09-15T19:00:38.032Z,23.24
2022-09-15T19:03:13.439Z,23.10
2022-09-15T19:05:40.918Z,22.98
2022-09-15T19:08:08.623Z,22.78
2022-09-15T19:10:37.826Z,22.94
2022-09-15T19:13:05.477Z,23.30
2022-09-15T19:15:35.525Z,23.50
2022-09-15T19:18:02.754Z,23.54
2022-09-15T19:20:30.483Z,23.46
2022-09-15T19:22:57.976Z,23.28
2022-09-15T19:25:24.798Z,23.40
2022-09-15T19:27:51.790Z,23.71
2022-09-15T19:30:18.767Z,23.89
2022-09-15T19:32:45.798Z,23.86
2022-09-15T19:35:12.817Z,23.70
2022-09-15T19:37:41.478Z,23.56
2022-09-15T19:40:11.695Z,23.32
2022-09-15T19:42:40.822Z,23.45
2022-09-15T19:45:10.666Z,23.75
2022-09-15T19:47:38.778Z,23.92
2022-09-15T19:50:07.454Z,23.91
2022-09-15T19:52:34.796Z,23.74
2022-09-15T19:55:04.472Z,23.51
2022-09-15T19:57:31.331Z,23.16
2022-09-15T19:59:58.428Z,23.23
2022-09-15T20:02:25.458Z,23.50
2022-09-15T20:07:37.723Z,23.44
2022-09-15T20:10:05.841Z,23.27
2022-09-15T20:12:32.763Z,23.00
2022-09-15T20:15:00.485Z,23.07
2022-09-15T20:17:27.817Z,23.33
2022-09-15T20:19:54.923Z,23.39
2022-09-15T20:22:22.440Z,23.32
2022-09-15T20:24:49.680Z,23.17
2022-09-15T20:27:16.560Z,22.96
2022-09-15T20:29:43.448Z,23.08
2022-09-15T20:34:56.239Z,23.59
2022-09-15T20:37:23.292Z,23.52
2022-09-15T20:39:50.811Z,23.40
2022-09-15T20:42:18.131Z,23.23
2022-09-15T20:44:45.107Z,22.95
2022-09-15T20:47:12.056Z,23.09
2022-09-15T20:49:38.871Z,23.34
2022-09-15T20:52:06.916Z,23.58
2022-09-15T20:54:34.103Z,23.53
2022-09-15T20:57:01.120Z,23.41
2022-09-15T20:59:28.885Z,23.26
2022-09-15T21:01:56.206Z,23.02
2022-09-15T21:04:23.820Z,23.17
2022-09-15T21:06:50.832Z,23.48
2022-09-15T21:09:17.760Z,23.59
2022-09-15T21:11:45.751Z,23.49
2022-09-15T21:14:14.942Z,23.36
2022-09-15T21:16:44.428Z,23.21
2022-09-15T21:19:12.196Z,22.91
2022-09-15T21:21:39.294Z,23.06
2022-09-15T21:24:08.236Z,23.42
2022-09-15T21:26:56.924Z,23.56
2022-09-15T21:29:24.361Z,23.52
2022-09-15T21:31:51.566Z,23.38
2022-09-15T21:34:19.631Z,23.16
2022-09-15T21:36:46.815Z,22.89
2022-09-15T21:39:13.736Z,22.97
2022-09-15T21:41:41.015Z,23.29
2022-09-15T21:44:08.811Z,23.46
2022-09-15T21:46:36.520Z,23.44
2022-09-15T21:49:03.362Z,23.34
2022-09-15T21:51:30.366Z,23.19
2022-09-15T21:53:58.967Z,22.90
2022-09-15T21:56:27.341Z,23.02
2022-09-15T21:58:54.835Z,23.32
2022-09-15T22:01:25.167Z,23.42
2022-09-15T22:03:55.372Z,23.33
2022-09-15T22:06:29.648Z,23.12
2022-09-15T22:09:06.288Z,22.95
2022-09-15T22:11:34.767Z,22.72
2022-09-15T22:14:03.318Z,22.93
2022-09-15T22:16:30.290Z,23.22
2022-09-15T22:18:57.231Z,23.34
2022-09-15T22:21:26.716Z,23.28
2022-09-15T22:23:55.762Z,23.10
2022-09-15T22:26:28.116Z,22.89
2022-09-15T22:28:55.989Z,22.65
2022-09-15T22:31:24.199Z,22.82
2022-09-15T22:33:52.029Z,23.12
2022-09-15T22:36:28.873Z,23.29
2022-09-15T22:39:04.538Z,23.26
2022-09-15T22:41:35.806Z,23.13
2022-09-15T22:44:04.118Z,22.91
2022-09-15T22:46:33.275Z,22.66
2022-09-15T22:49:00.981Z,22.77
2022-09-15T22:51:28.324Z,23.04
2022-09-15T22:53:56.362Z,23.14
2022-09-15T22:56:25.460Z,23.14
2022-09-15T22:58:52.427Z,22.93
2022-09-15T23:01:22.603Z,22.74
2022-09-15T23:03:55.130Z,22.52
2022-09-15T23:06:23.806Z,22.59
2022-09-15T23:08:55.939Z,22.92
2022-09-15T23:11:25.327Z,22.99
2022-09-15T23:13:54.173Z,22.79
2022-09-15T23:16:22.734Z,22.62
2022-09-15T23:18:51.857Z,22.43
2022-09-15T23:21:19.191Z,22.13
2022-09-15T23:23:48.221Z,22.20
2022-09-15T23:26:20.272Z,22.57
2022-09-15T23:28:48.919Z,22.59
2022-09-15T23:31:16.904Z,22.48
2022-09-15T23:33:44.026Z,22.32
2022-09-15T23:36:14.370Z,22.15
2022-09-15T23:38:43.875Z,21.83
2022-09-15T23:41:12.171Z,21.94
2022-09-15T23:43:39.405Z,22.25
2022-09-15T23:46:07.357Z,22.36
2022-09-15T23:48:34.954Z,22.40
2022-09-15T23:51:02.488Z,22.22
2022-09-15T23:53:29.476Z,22.03
2022-09-15T23:55:56.266Z,21.78
2022-09-15T23:58:23.362Z,21.86
